Time;durP1;ratioP1;P1;durP2;ratioP2;P2;SDS_P1;SDS_P2;PMS_P1;PMS_P2;Temp;Humidity;BMP_temperature;BMP_pressure;BME280_temperature;BME280_humidity;BME280_pressure;Samples;Min_cycle;Max_cycle;Signal;HPM_P1;HPM_P2
2022/06/27 04:29:30;;;;;;;2.83;2.15;;;21.40;69.00;;;;;;4699955;30;20069;-73
2022/06/27 04:31:56;;;;;;;3.55;2.00;;;21.30;69.00;;;;;;4702033;30;20045;-73
2022/06/27 04:34:22;;;;;;;4.05;2.53;;;21.30;69.20;;;;;;4702611;30;20053;-74
2022/06/27 04:36:48;;;;;;;4.03;2.50;;;21.20;69.50;;;;;;4702101;30;20049;-73
2022/06/27 04:39:17;;;;;;;3.25;2.65;;;21.10;69.80;;;;;;4701822;30;20123;-74
2022/06/27 04:41:47;;;;;;;3.45;2.90;;;21.10;70.10;;;;;;4702059;30;20146;-74
2022/06/27 04:44:13;;;;;;;4.22;3.40;;;21.00;70.30;;;;;;4701788;30;20053;-75
2022/06/27 04:46:40;;;;;;;4.10;3.67;;;21.00;70.50;;;;;;4701959;30;20098;-74
2022/06/27 04:49:07;;;;;;;4.13;3.55;;;20.90;70.70;;;;;;4686903;30;20477;-74
2022/06/27 04:51:34;;;;;;;5.93;3.17;;;20.90;70.80;;;;;;4705552;30;20364;-75
2022/06/27 04:54:00;;;;;;;4.90;3.03;;;20.90;71.00;;;;;;4707312;30;20481;-75
2022/06/27 04:56:26;;;;;;;4.45;3.17;;;20.90;71.20;;;;;;4712361;30;20048;-81
2022/06/27 04:58:52;;;;;;;4.25;3.22;;;20.90;71.40;;;;;;4701920;30;20127;-76
2022/06/27 05:01:18;;;;;;;6.25;4.10;;;20.90;71.60;;;;;;4701642;30;20374;-74
2022/06/27 05:03:44;;;;;;;5.47;4.43;;;20.90;71.80;;;;;;4701392;30;20387;-75
2022/06/27 05:06:09;;;;;;;5.18;3.88;;;20.90;71.90;;;;;;4701912;30;20058;-76
2022/06/27 05:08:37;;;;;;;5.53;3.58;;;20.90;72.00;;;;;;4701140;30;20068;-75
2022/06/27 05:11:04;;;;;;;6.82;4.22;;;20.80;72.20;;;;;;4702744;30;20049;-81
2022/06/27 05:13:31;;;;;;;5.35;3.83;;;20.90;72.40;;;;;;4712304;30;20489;-79
2022/06/27 05:15:58;;;;;;;6.97;4.03;;;20.90;72.50;;;;;;4701593;30;20493;-75
2022/06/27 05:18:24;;;;;;;4.40;3.70;;;20.90;72.60;;;;;;4701121;30;20481;-72
2022/06/27 05:20:50;;;;;;;5.40;4.32;;;20.90;72.60;;;;;;4701516;30;20057;-77
2022/06/27 05:23:16;;;;;;;4.90;4.20;;;20.90;72.60;;;;;;4701375;30;20061;-78
2022/06/27 05:25:42;;;;;;;6.35;3.72;;;20.90;72.60;;;;;;4700822;30;20057;-76
2022/06/27 05:28:08;;;;;;;6.72;3.90;;;20.90;72.60;;;;;;4700686;30;20065;-78
2022/06/27 05:30:34;;;;;;;5.85;4.20;;;20.90;72.20;;;;;;4675776;30;20475;-78
2022/06/27 05:33:03;;;;;;;9.48;4.57;;;20.90;71.80;;;;;;4686921;30;20132;-84
2022/06/27 05:35:29;;;;;;;6.93;4.13;;;20.90;71.20;;;;;;4687397;30;20046;-75
2022/06/27 05:37:55;;;;;;;5.88;3.30;;;20.90;71.10;;;;;;4700839;30;20049;-75
2022/06/27 05:40:22;;;;;;;5.65;3.67;;;20.90;71.20;;;;;;4687392;30;20120;-78
2022/06/27 05:42:49;;;;;;;6.88;4.38;;;20.90;71.40;;;;;;4687721;30;20133;-77
2022/06/27 05:45:15;;;;;;;6.05;3.75;;;20.90;71.60;;;;;;4687251;30;20134;-75
2022/06/27 05:47:42;;;;;;;8.45;4.95;;;20.90;71.80;;;;;;4700381;30;20127;-75
2022/06/27 05:50:09;;;;;;;7.57;5.13;;;20.90;72.00;;;;;;4686609;30;20089;-77
2022/06/27 05:52:39;;;;;;;7.72;5.32;;;20.90;72.20;;;;;;4687390;30;20085;-74
2022/06/27 05:55:07;;;;;;;8.10;6.30;;;21.00;72.40;;;;;;4687189;30;20069;-78
2022/06/27 05:57:33;;;;;;;11.25;6.97;;;20.90;72.30;;;;;;4687365;30;20053;-78
2022/06/27 05:59:59;;;;;;;9.05;7.05;;;20.90;72.50;;;;;;4686899;30;20359;-77
2022/06/27 06:02:25;;;;;;;10.77;6.57;;;20.90;72.80;;;;;;4687029;30;20467;-75
2022/06/27 06:04:52;;;;;;;11.20;6.38;;;20.90;72.90;;;;;;4686871;30;20062;-76
2022/06/27 06:07:18;;;;;;;10.43;8.45;;;20.90;73.10;;;;;;4700562;30;20058;-76
2022/06/27 06:09:44;;;;;;;11.52;8.15;;;20.90;73.10;;;;;;4686917;30;20363;-76
2022/06/27 06:12:11;;;;;;;10.27;7.90;;;20.90;73.30;;;;;;4699829;30;20058;-74
2022/06/27 06:14:38;;;;;;;12.32;8.02;;;20.90;73.60;;;;;;4694551;30;20501;-77
2022/06/27 06:17:05;;;;;;;8.88;8.00;;;20.80;73.80;;;;;;4695006;30;20054;-79
2022/06/27 06:19:31;;;;;;;10.20;8.00;;;20.80;73.90;;;;;;4704113;30;20349;-80
2022/06/27 06:21:57;;;;;;;9.60;8.40;;;20.70;74.10;;;;;;4674717;30;20153;-81
2022/06/27 06:24:24;;;;;;;9.93;8.27;;;20.70;74.20;;;;;;4685615;30;20374;-73
2022/06/27 06:26:56;;;;;;;9.60;8.60;;;20.70;74.30;;;;;;4686778;30;20567;-83
2022/06/27 06:29:23;;;;;;;11.60;9.00;;;20.70;74.50;;;;;;4702254;30;20378;-76
2022/06/27 06:31:49;;;;;;;9.32;8.05;;;20.70;74.60;;;;;;4703597;30;20053;-77
2022/06/27 06:34:16;;;;;;;9.40;8.50;;;20.60;74.60;;;;;;4703762;30;20057;-73
2022/06/27 06:36:44;;;;;;;12.95;9.88;;;20.60;74.80;;;;;;4708383;30;20053;-73
2022/06/27 06:39:10;;;;;;;11.38;9.65;;;20.60;74.90;;;;;;4720320;30;20052;-77
2022/06/27 06:41:37;;;;;;;12.02;9.40;;;20.60;74.80;;;;;;4715106;30;20049;-74
2022/06/27 06:44:05;;;;;;;10.23;9.23;;;20.60;74.90;;;;;;4703149;30;20522;-77
2022/06/27 06:46:34;;;;;;;11.15;9.40;;;20.60;75.00;;;;;;4703871;30;20053;-76
2022/06/27 06:49:06;;;;;;;12.02;8.88;;;20.60;74.90;;;;;;4703403;30;20153;-76
2022/06/27 06:51:39;;;;;;;10.55;9.45;;;20.60;74.90;;;;;;4706297;30;20054;-75
2022/06/27 06:54:06;;;;;;;10.73;8.80;;;20.60;74.70;;;;;;4703435;30;20144;-75
2022/06/27 06:56:33;;;;;;;11.27;9.90;;;20.60;74.70;;;;;;4688091;30;20065;-76
2022/06/27 06:59:01;;;;;;;10.18;9.15;;;20.60;74.70;;;;;;4688186;30;20057;-74
2022/06/27 07:01:28;;;;;;;10.40;9.38;;;20.60;74.30;;;;;;4708292;30;20052;-77
2022/06/27 07:03:55;;;;;;;12.50;10.50;;;20.60;74.20;;;;;;4718971;30;20044;-74
2022/06/27 07:06:26;;;;;;;11.38;8.82;;;20.60;74.20;;;;;;4720644;30;20061;-74
2022/06/27 07:08:57;;;;;;;11.32;9.70;;;20.60;74.20;;;;;;4720430;30;20084;-74
2022/06/27 07:11:25;;;;;;;12.35;10.65;;;20.60;74.30;;;;;;4720581;30;20053;-75
2022/06/27 07:13:52;;;;;;;14.48;10.40;;;20.60;74.30;;;;;;4707121;30;20101;-75
2022/06/27 07:16:19;;;;;;;12.38;10.18;;;20.60;74.50;;;;;;4703660;30;20100;-73
2022/06/27 07:18:46;;;;;;;12.43;10.32;;;20.60;74.60;;;;;;4703205;30;20156;-73
2022/06/27 07:21:16;;;;;;;12.10;10.80;;;20.60;74.60;;;;;;4703190;30;20068;-73
2022/06/27 07:23:46;;;;;;;13.32;10.82;;;20.60;74.60;;;;;;4702887;30;20132;-75
2022/06/27 07:26:12;;;;;;;12.77;10.23;;;20.60;74.60;;;;;;4702883;30;20140;-75
2022/06/27 07:28:40;;;;;;;11.70;9.10;;;20.60;74.40;;;;;;4703006;30;20069;-74
2022/06/27 07:31:11;;;;;;;10.57;9.57;;;20.60;74.20;;;;;;4702871;30;20065;-73
2022/06/27 07:33:48;;;;;;;12.75;10.18;;;20.60;74.00;;;;;;4702700;30;20061;-76
2022/06/27 07:36:17;;;;;;;10.60;9.38;;;20.60;73.70;;;;;;4702286;30;20481;-74
2022/06/27 07:38:46;;;;;;;18.35;9.63;;;20.60;73.90;;;;;;4702770;30;20469;-76
2022/06/27 07:41:19;;;;;;;12.38;8.68;;;20.60;74.00;;;;;;4702454;30;20431;-74
2022/06/27 07:43:46;;;;;;;13.55;8.80;;;20.60;74.00;;;;;;4699120;30;20084;-73
2022/06/27 07:46:12;;;;;;;12.57;7.95;;;20.60;73.90;;;;;;4720122;30;20367;-73
2022/06/27 07:48:38;;;;;;;10.07;7.82;;;20.60;73.80;;;;;;4695002;30;20462;-74
2022/06/27 07:51:05;;;;;;;13.23;7.22;;;20.70;73.80;;;;;;4687250;30;20064;-76
2022/06/27 07:53:31;;;;;;;12.35;7.88;;;20.70;73.80;;;;;;4701316;30;20068;-79
2022/06/27 07:55:59;;;;;;;13.05;7.22;;;20.60;73.70;;;;;;4687271;30;20490;-79
2022/06/27 07:58:35;;;;;;;8.65;6.95;;;20.70;73.70;;;;;;4686912;30;20215;-76
2022/06/27 08:01:07;;;;;;;10.75;7.07;;;20.80;73.60;;;;;;4703737;30;20042;-77
2022/06/27 08:03:36;;;;;;;11.77;7.60;;;20.80;73.50;;;;;;4704119;30;20053;-77
2022/06/27 08:06:05;;;;;;;12.88;6.70;;;20.90;73.30;;;;;;4719526;30;20123;-78
2022/06/27 08:08:36;;;;;;;9.73;7.07;;;20.90;73.30;;;;;;4719685;30;20053;-75
2022/06/27 08:11:04;;;;;;;10.73;6.45;;;20.90;73.10;;;;;;4719507;30;20064;-75
2022/06/27 08:13:31;;;;;;;9.07;7.50;;;20.80;73.00;;;;;;4719530;30;20061;-75
2022/06/27 08:15:58;;;;;;;10.10;8.35;;;20.90;72.90;;;;;;4718748;30;20077;-73
2022/06/27 08:18:24;;;;;;;12.30;7.47;;;20.80;72.60;;;;;;4718175;30;20114;-76
2022/06/27 08:20:50;;;;;;;13.65;6.57;;;20.80;72.60;;;;;;4707605;30;20132;-76
2022/06/27 08:23:17;;;;;;;13.05;8.60;;;20.80;72.70;;;;;;4702294;30;20446;-76
2022/06/27 08:25:43;;;;;;;12.05;7.60;;;20.90;72.60;;;;;;4702238;30;20366;-74
2022/06/27 08:28:10;;;;;;;10.85;7.57;;;20.80;72.40;;;;;;4696769;30;20064;-76
2022/06/27 08:30:37;;;;;;;9.32;7.40;;;20.80;72.40;;;;;;4718507;30;20140;-75
2022/06/27 08:33:03;;;;;;;15.25;7.13;;;20.80;72.60;;;;;;4719835;30;20355;-75
2022/06/27 08:35:30;;;;;;;10.90;6.43;;;20.80;72.70;;;;;;4719287;30;20055;-74
2022/06/27 08:37:58;;;;;;;10.73;6.50;;;20.80;72.70;;;;;;4719333;30;20050;-73
2022/06/27 08:40:26;;;;;;;8.25;6.32;;;20.90;72.60;;;;;;4718581;30;20061;-74
2022/06/27 08:42:53;;;;;;;7.55;5.43;;;20.90;72.60;;;;;;4718998;30;20045;-73
2022/06/27 08:45:23;;;;;;;8.75;5.07;;;20.90;72.50;;;;;;4703955;30;20061;-74
2022/06/27 08:47:50;;;;;;;9.48;5.43;;;20.90;72.40;;;;;;4718331;30;20466;-77
2022/06/27 08:50:17;;;;;;;7.03;5.25;;;20.90;72.40;;;;;;4704543;30;20410;-75
2022/06/27 08:52:47;;;;;;;8.38;5.45;;;21.00;72.50;;;;;;4719404;30;20053;-75
2022/06/27 08:55:12;;;;;;;7.68;4.70;;;21.00;72.50;;;;;;4703829;30;20171;-76
2022/06/27 08:57:42;;;;;;;7.20;4.45;;;21.00;72.60;;;;;;4712417;30;20486;-81
2022/06/27 09:00:15;;;;;;;9.38;4.30;;;21.10;72.70;;;;;;4700558;30;20049;-74
2022/06/27 09:02:44;;;;;;;9.00;4.65;;;21.10;72.80;;;;;;4701971;30;20432;-73
2022/06/27 09:05:21;;;;;;;7.65;4.53;;;21.10;73.00;;;;;;4704632;30;20062;-76
2022/06/27 09:07:55;;;;;;;4.75;3.58;;;21.10;73.20;;;;;;4689020;30;20127;-74
2022/06/27 09:10:26;;;;;;;7.45;4.68;;;21.10;73.10;;;;;;4704749;30;20049;-74
2022/06/27 09:13:22;;;;;;;9.40;6.55;;;21.20;73.10;;;;;;4689967;30;20482;-76
2022/06/27 09:15:53;;;;;;;10.95;7.20;;;21.20;72.90;;;;;;4689235;30;20169;-76
2022/06/27 09:18:29;;;;;;;9.85;6.65;;;21.20;72.80;;;;;;4689828;30;20140;-74
2022/06/27 09:21:07;;;;;;;10.10;6.18;;;21.10;72.40;;;;;;4704913;30;20069;-76
2022/06/27 09:23:50;;;;;;;7.35;5.38;;;21.20;72.50;;;;;;4705174;30;20068;-76
2022/06/27 09:26:38;;;;;;;7.43;5.35;;;21.20;72.50;;;;;;4705152;30;20118;-77
2022/06/27 09:29:09;;;;;;;5.82;5.10;;;21.20;72.60;;;;;;4705080;30;20127;-78
2022/06/27 09:31:37;;;;;;;12.70;5.72;;;21.20;72.50;;;;;;4722039;30;20509;-77
2022/06/27 09:34:18;;;;;;;6.78;4.95;;;21.20;72.40;;;;;;4721949;30;20053;-74
2022/06/27 09:36:50;;;;;;;7.20;4.70;;;21.30;72.30;;;;;;4722010;30;20106;-78
2022/06/27 09:39:34;;;;;;;5.15;4.15;;;21.30;72.20;;;;;;4707085;30;20061;-76
2022/06/27 09:42:11;;;;;;;6.63;3.42;;;21.30;72.20;;;;;;4722126;30;20052;-77
2022/06/27 09:44:41;;;;;;;7.78;3.78;;;21.30;72.20;;;;;;4722149;30;20053;-75
2022/06/27 09:47:16;;;;;;;5.05;3.83;;;21.30;72.20;;;;;;4722032;30;20099;-76
2022/06/27 09:49:44;;;;;;;6.78;4.10;;;21.30;72.10;;;;;;4721956;30;20122;-75
2022/06/27 09:52:15;;;;;;;4.05;3.35;;;21.40;72.20;;;;;;4721935;30;20095;-76
2022/06/27 09:54:47;;;;;;;6.47;3.38;;;21.40;72.20;;;;;;4721752;30;20057;-75
2022/06/27 09:57:14;;;;;;;4.43;3.00;;;21.40;72.10;;;;;;4716637;30;20053;-77
2022/06/27 09:59:41;;;;;;;5.90;3.05;;;21.40;72.10;;;;;;4704149;30;20053;-78
2022/06/27 10:02:23;;;;;;;;;;;;;;;;;;;;;
2022/06/27 10:04:51;;;;;;;4.95;3.55;;;21.40;71.60;;;;;;4713773;30;20045;-79
2022/06/27 10:07:18;;;;;;;4.95;3.80;;;21.40;71.40;;;;;;4703506;30;20053;-81
2022/06/27 10:09:48;;;;;;;9.52;4.53;;;21.30;71.30;;;;;;4704142;30;20064;-76
2022/06/27 10:12:36;;;;;;;7.78;3.63;;;21.40;71.00;;;;;;4704183;30;20058;-78
2022/06/27 10:15:10;;;;;;;8.05;4.10;;;21.40;71.30;;;;;;4702724;30;20481;-80
2022/06/27 10:17:43;;;;;;;7.57;3.67;;;21.40;71.00;;;;;;4704130;30;20045;-78
2022/06/27 10:20:20;;;;;;;6.83;3.50;;;21.40;71.60;;;;;;4703373;30;20064;-76
2022/06/27 10:23:04;;;;;;;8.18;3.53;;;21.40;71.40;;;;;;4704710;30;20145;-75
2022/06/27 10:25:29;;;;;;;7.60;3.13;;;21.40;71.70;;;;;;4703720;30;20462;-79
2022/06/27 10:28:09;;;;;;;6.88;3.70;;;21.50;71.80;;;;;;4703769;30;20066;-80
2022/06/27 10:30:59;;;;;;;7.57;4.20;;;21.50;70.10;;;;;;4702958;30;20144;-78
2022/06/27 10:33:25;;;;;;;7.75;3.55;;;21.50;69.20;;;;;;4703498;30;20471;-80
2022/06/27 10:36:04;;;;;;;6.68;3.20;;;21.50;69.60;;;;;;4703136;30;20050;-79
2022/06/27 10:38:34;;;;;;;6.95;3.20;;;21.50;69.40;;;;;;4703818;30;20496;-78
2022/06/27 10:41:02;;;;;;;8.10;3.63;;;21.50;68.90;;;;;;4689234;30;20064;-78
2022/06/27 10:43:41;;;;;;;5.35;3.63;;;21.60;68.90;;;;;;4703695;30;20057;-78
2022/06/27 10:46:10;;;;;;;6.07;2.88;;;21.60;68.80;;;;;;4703988;30;20057;-75
2022/06/27 10:48:38;;;;;;;9.45;2.95;;;21.60;69.30;;;;;;4703673;30;20057;-75
2022/06/27 10:51:30;;;;;;;4.20;2.40;;;21.60;69.70;;;;;;4703701;30;20050;-75
2022/06/27 10:54:04;;;;;;;5.88;2.95;;;21.60;69.80;;;;;;4688211;30;20061;-75
2022/06/27 10:56:46;;;;;;;5.63;2.58;;;21.60;70.00;;;;;;4703214;30;20375;-74
2022/06/27 10:59:15;;;;;;;6.53;2.30;;;21.60;70.10;;;;;;4703711;30;20049;-75
2022/06/27 11:01:51;;;;;;;7.03;2.25;;;21.60;70.30;;;;;;4702796;30;20103;-75
2022/06/27 11:04:28;;;;;;;5.22;2.50;;;21.60;70.50;;;;;;4702935;30;20065;-75
2022/06/27 11:06:59;;;;;;;6.05;2.30;;;21.60;70.60;;;;;;4703345;30;20128;-82
2022/06/27 11:09:34;;;;;;;6.70;2.60;;;21.60;70.80;;;;;;4703213;30;20061;-75
2022/06/27 11:12:00;;;;;;;7.80;2.30;;;21.60;71.00;;;;;;4703095;30;20477;-75
2022/06/27 11:14:26;;;;;;;10.38;3.15;;;21.60;71.10;;;;;;4703383;30;20093;-75
2022/06/27 11:16:52;;;;;;;11.25;3.30;;;21.70;71.30;;;;;;4703295;30;20351;-75
2022/06/27 11:22:21;;;;;;;14.07;3.05;;;21.70;71.20;;;;;;4703615;30;20065;-73
2022/06/27 11:24:48;;;;;;;5.57;2.70;;;21.70;71.00;;;;;;4702899;30;20125;-72
2022/06/27 11:27:15;;;;;;;8.07;2.60;;;21.70;71.00;;;;;;4701780;30;20374;-74
2022/06/27 11:32:27;;;;;;;6.30;2.47;;;21.70;71.20;;;;;;4702747;30;20144;-75
2022/06/27 11:34:54;;;;;;;5.40;2.58;;;21.70;71.20;;;;;;4703054;30;20057;-74
2022/06/27 11:37:23;;;;;;;4.13;2.63;;;21.70;71.20;;;;;;4687638;30;20065;-74
2022/06/27 11:40:04;;;;;;;5.00;2.80;;;21.70;71.10;;;;;;4702866;30;20070;-76
2022/06/27 11:42:35;;;;;;;6.20;2.60;;;21.70;70.80;;;;;;4702364;30;20064;-73
2022/06/27 11:45:13;;;;;;;5.85;2.90;;;21.70;70.80;;;;;;4702589;30;20060;-74
2022/06/27 11:47:42;;;;;;;6.82;3.10;;;21.70;70.70;;;;;;4702692;30;20057;-75
2022/06/27 11:50:11;;;;;;;4.28;2.75;;;21.70;70.40;;;;;;4702793;30;20053;-74
2022/06/27 11:52:45;;;;;;;8.18;2.58;;;21.70;70.20;;;;;;4702932;30;20107;-75
2022/06/27 11:55:22;;;;;;;5.80;2.83;;;21.70;69.80;;;;;;4702243;30;20504;-77
2022/06/27 11:57:50;;;;;;;9.32;3.30;;;21.70;69.70;;;;;;4702538;30;20064;-75
2022/06/27 12:00:19;;;;;;;5.57;2.70;;;21.70;69.20;;;;;;4702348;30;20096;-78
2022/06/27 12:02:47;;;;;;;10.63;3.20;;;21.70;68.90;;;;;;4702152;30;20054;-76
2022/06/27 12:05:20;;;;;;;6.93;3.20;;;21.60;68.80;;;;;;4701289;30;20064;-75
2022/06/27 12:08:10;;;;;;;5.90;2.65;;;21.70;68.80;;;;;;4686938;30;20068;-75
2022/06/27 12:13:39;;;;;;;5.93;3.15;;;21.70;69.00;;;;;;4701050;30;20069;-76
2022/06/27 12:16:08;;;;;;;5.78;3.40;;;21.70;69.00;;;;;;4700466;30;20064;-75
2022/06/27 12:18:45;;;;;;;7.38;2.72;;;21.70;69.00;;;;;;4702205;30;20432;-75
2022/06/27 12:21:11;;;;;;;7.07;2.40;;;21.70;69.00;;;;;;4686730;30;20127;-77
2022/06/27 12:23:38;;;;;;;6.55;2.33;;;21.70;69.10;;;;;;4702000;30;20061;-77
2022/06/27 12:26:38;;;;;;;4.95;2.40;;;21.70;69.30;;;;;;4686601;30;20095;-80
2022/06/27 12:28:57;;;;;;;6.45;2.25;;;21.70;69.60;;;;;;4685305;30;20537;-78
2022/06/27 12:31:30;;;;;;;6.45;2.13;;;21.70;69.80;;;;;;4700776;30;20129;-84
2022/06/27 12:33:56;;;;;;;5.63;2.38;;;21.80;70.20;;;;;;4700604;30;20085;-80
2022/06/27 12:36:22;;;;;;;8.13;2.30;;;21.80;70.50;;;;;;4696790;30;20092;-79
2022/06/27 12:38:48;;;;;;;7.90;2.60;;;21.70;70.70;;;;;;4708629;30;20099;-78
2022/06/27 12:41:17;;;;;;;5.32;1.92;;;21.80;70.70;;;;;;4695462;30;20061;-80
2022/06/27 12:43:45;;;;;;;11.50;2.42;;;21.80;70.60;;;;;;4704028;30;20052;-81
2022/06/27 12:46:12;;;;;;;4.93;1.90;;;21.80;70.50;;;;;;4688958;30;20049;-77
2022/06/27 12:48:39;;;;;;;8.73;2.08;;;21.80;70.60;;;;;;4701918;30;20489;-81
2022/06/27 12:51:07;;;;;;;5.50;2.60;;;21.80;70.80;;;;;;4686773;30;20045;-78
2022/06/27 12:53:34;;;;;;;10.20;2.70;;;21.80;71.10;;;;;;4700233;30;20050;-79
2022/06/27 12:56:03;;;;;;;7.85;2.38;;;21.80;71.10;;;;;;4700815;30;20054;-80
2022/06/27 12:58:31;;;;;;;11.15;2.70;;;21.80;71.40;;;;;;4697569;30;20062;-78
2022/06/27 13:00:57;;;;;;;8.38;2.50;;;21.80;71.30;;;;;;4683344;30;20065;-78
2022/06/27 13:03:23;;;;;;;11.57;2.90;;;21.80;71.20;;;;;;4683510;30;20155;-79
2022/06/27 13:05:49;;;;;;;8.52;3.30;;;21.80;70.20;;;;;;4669721;30;20140;-79
2022/06/27 13:08:14;;;;;;;11.38;2.75;;;21.80;70.00;;;;;;4683343;30;20069;-80
2022/06/27 13:10:40;;;;;;;10.30;3.65;;;21.80;69.90;;;;;;4697661;30;20344;-77
2022/06/27 13:13:06;;;;;;;11.10;3.25;;;21.80;69.70;;;;;;4684704;30;20046;-79
2022/06/27 13:15:34;;;;;;;10.25;2.88;;;21.80;69.90;;;;;;4683536;30;20081;-78
2022/06/27 13:18:02;;;;;;;6.60;3.30;;;21.80;69.90;;;;;;4683220;30;20367;-78
2022/06/27 13:20:28;;;;;;;8.77;3.35;;;21.80;69.80;;;;;;4683505;30;20414;-75
2022/06/27 13:22:54;;;;;;;13.25;4.07;;;21.80;70.00;;;;;;4697918;30;20124;-78
2022/06/27 13:25:20;;;;;;;13.60;4.20;;;21.80;70.10;;;;;;4684454;30;20104;-82
2022/06/27 13:27:46;;;;;;;9.50;4.82;;;21.90;70.10;;;;;;4683013;30;20151;-79
2022/06/27 13:30:13;;;;;;;10.07;4.15;;;21.80;70.20;;;;;;4669222;30;20070;-76
2022/06/27 13:32:39;;;;;;;11.00;4.65;;;21.90;70.30;;;;;;4684911;30;20061;-79
2022/06/27 13:35:06;;;;;;;9.60;4.90;;;21.90;70.40;;;;;;4714078;30;20445;-79
2022/06/27 13:37:32;;;;;;;14.70;4.85;;;21.90;70.40;;;;;;4685844;30;20050;-72
2022/06/27 13:39:57;;;;;;;7.07;4.72;;;21.90;70.60;;;;;;4708940;30;20370;-77
2022/06/27 13:42:23;;;;;;;10.23;5.03;;;21.90;71.30;;;;;;4710164;30;20360;-78
2022/06/27 13:44:49;;;;;;;12.90;5.65;;;21.80;70.60;;;;;;4700012;30;20180;-77
2022/06/27 13:47:15;;;;;;;7.72;5.30;;;21.90;70.80;;;;;;4701178;30;20061;-83
2022/06/27 13:49:41;;;;;;;7.45;5.80;;;21.90;70.80;;;;;;4699970;30;20399;-79
2022/06/27 13:52:08;;;;;;;9.10;5.88;;;21.90;71.10;;;;;;4704218;30;20068;-76
2022/06/27 13:54:34;;;;;;;12.18;6.30;;;21.90;71.10;;;;;;4700161;30;20058;-78
2022/06/27 13:57:00;;;;;;;8.45;6.18;;;21.90;71.10;;;;;;4687231;30;20343;-76
2022/06/27 13:59:26;;;;;;;9.65;6.00;;;21.90;70.60;;;;;;4687230;30;20519;-79
2022/06/27 14:01:52;;;;;;;9.57;5.93;;;21.90;70.50;;;;;;4694186;30;20057;-76
2022/06/27 14:04:20;;;;;;;12.50;6.28;;;21.90;70.80;;;;;;4702654;30;20104;-79
2022/06/27 14:09:32;;;;;;;12.20;6.68;;;21.90;70.10;;;;;;4690019;30;20069;-74
2022/06/27 14:11:57;;;;;;;11.48;6.40;;;21.90;70.20;;;;;;4704023;30;20081;-78
2022/06/27 14:14:23;;;;;;;13.60;7.05;;;21.90;70.40;;;;;;4688669;30;20086;-80
2022/06/27 14:16:50;;;;;;;12.00;5.80;;;21.90;69.90;;;;;;4688086;30;20065;-78
2022/06/27 14:19:17;;;;;;;7.80;5.18;;;21.90;70.00;;;;;;4701338;30;20144;-77
2022/06/27 14:21:43;;;;;;;9.02;5.72;;;21.90;70.20;;;;;;4721190;30;20127;-78
2022/06/27 14:24:09;;;;;;;9.82;5.90;;;21.90;70.40;;;;;;4688323;30;20531;-80
2022/06/27 14:26:35;;;;;;;10.63;6.03;;;21.90;70.10;;;;;;4702829;30;20131;-79
2022/06/27 14:29:01;;;;;;;12.40;7.60;;;21.90;69.80;;;;;;4688375;30;20422;-79
2022/06/27 14:31:27;;;;;;;12.32;7.57;;;21.80;69.90;;;;;;4703435;30;20134;-79
2022/06/27 14:33:53;;;;;;;13.40;6.90;;;21.80;70.40;;;;;;4702749;30;20137;-80
2022/06/27 14:36:19;;;;;;;12.65;7.28;;;21.80;71.00;;;;;;4702804;30;20061;-78
2022/06/27 14:38:44;;;;;;;11.77;7.53;;;21.80;71.50;;;;;;4702812;30;20068;-80
2022/06/27 14:41:10;;;;;;;14.48;8.85;;;21.80;72.00;;;;;;4702720;30;20072;-79
2022/06/27 14:43:36;;;;;;;15.25;6.85;;;21.80;72.30;;;;;;4703301;30;20379;-79
2022/06/27 14:46:02;;;;;;;13.20;6.18;;;21.80;72.40;;;;;;4703020;30;20137;-79
2022/06/27 14:48:28;;;;;;;7.63;4.80;;;21.80;72.20;;;;;;4703751;30;20481;-79
2022/06/27 14:50:54;;;;;;;12.38;5.18;;;21.80;72.00;;;;;;4704184;30;20068;-81
2022/06/27 14:53:20;;;;;;;8.45;3.92;;;21.70;71.80;;;;;;4686582;30;20053;-77
2022/06/27 14:55:46;;;;;;;12.85;4.90;;;21.70;71.70;;;;;;4686218;30;20069;-83
2022/06/27 14:58:12;;;;;;;13.05;4.90;;;21.70;71.70;;;;;;4700042;30;20502;-79
2022/06/27 15:00:38;;;;;;;8.88;5.22;;;21.60;71.80;;;;;;4685806;30;20141;-78
2022/06/27 15:03:04;;;;;;;7.90;4.80;;;21.60;71.90;;;;;;4686227;30;20068;-79
2022/06/27 15:05:30;;;;;;;13.07;4.57;;;21.60;71.90;;;;;;4699784;30;20469;-80
2022/06/27 15:07:56;;;;;;;6.47;4.15;;;21.60;71.90;;;;;;4699728;30;20058;-78
2022/06/27 15:10:22;;;;;;;9.05;3.65;;;21.50;72.00;;;;;;4685962;30;20058;-78
2022/06/27 15:12:48;;;;;;;9.95;4.00;;;21.60;72.10;;;;;;4685765;30;20054;-80
2022/06/27 15:15:15;;;;;;;9.68;3.25;;;21.60;72.20;;;;;;4696712;30;20119;-75
2022/06/27 15:17:43;;;;;;;9.05;3.88;;;21.60;71.90;;;;;;4702566;30;20518;-82
2022/06/27 15:20:11;;;;;;;26.55;9.93;;;21.70;71.90;;;;;;4701795;30;20414;-74
2022/06/27 15:22:37;;;;;;;18.17;8.65;;;21.70;71.30;;;;;;4703170;30;20058;-77
2022/06/27 15:25:04;;;;;;;18.38;8.77;;;21.80;71.50;;;;;;4701843;30;20140;-79
2022/06/27 15:27:31;;;;;;;23.48;9.02;;;21.70;71.80;;;;;;4702757;30;20072;-79
2022/06/27 15:29:57;;;;;;;22.95;8.95;;;21.70;71.80;;;;;;4701688;30;20080;-79
2022/06/27 15:32:23;;;;;;;19.70;8.77;;;21.70;71.70;;;;;;4700669;30;20423;-78
2022/06/27 15:34:49;;;;;;;13.65;5.78;;;21.70;71.40;;;;;;4686726;30;20066;-75
2022/06/27 15:37:16;;;;;;;11.55;5.05;;;21.70;71.00;;;;;;4702669;30;20095;-77
2022/06/27 15:39:42;;;;;;;9.95;4.07;;;21.70;70.70;;;;;;4702732;30;20057;-78
2022/06/27 15:42:08;;;;;;;6.97;3.67;;;21.60;70.30;;;;;;4702281;30;20493;-76
2022/06/27 15:44:33;;;;;;;8.93;3.22;;;21.50;69.90;;;;;;4697260;30;20077;-80
2022/06/27 15:46:59;;;;;;;7.78;3.10;;;21.50;69.90;;;;;;4698793;30;20089;-76
2022/06/27 15:49:25;;;;;;;6.03;2.45;;;21.40;69.80;;;;;;4699183;30;20352;-77
2022/06/27 15:51:51;;;;;;;7.15;2.53;;;21.40;69.80;;;;;;4685216;30;20050;-77
2022/06/27 15:54:17;;;;;;;4.93;1.98;;;21.30;69.80;;;;;;4685427;30;20073;-76
2022/06/27 15:56:43;;;;;;;4.47;1.95;;;21.30;69.80;;;;;;4685223;30;20467;-76
2022/06/27 15:59:09;;;;;;;5.38;1.38;;;21.20;69.70;;;;;;4692462;30;20182;-77
2022/06/27 16:01:35;;;;;;;3.88;1.67;;;21.20;69.70;;;;;;4701180;30;20052;-77
2022/06/27 16:04:00;;;;;;;5.20;1.73;;;21.10;69.60;;;;;;4703036;30;20081;-77
2022/06/27 16:06:26;;;;;;;4.53;1.60;;;21.10;69.70;;;;;;4702439;30;20469;-76
2022/06/27 16:08:52;;;;;;;5.43;1.90;;;21.00;69.80;;;;;;4702360;30;20053;-76
2022/06/27 16:11:17;;;;;;;3.47;1.30;;;21.00;70.00;;;;;;4701964;30;20053;-76
2022/06/27 16:13:44;;;;;;;2.47;1.20;;;21.00;70.10;;;;;;4701386;30;20059;-76
2022/06/27 16:16:10;;;;;;;4.80;1.33;;;21.00;70.20;;;;;;4702379;30;20049;-77
2022/06/27 16:18:36;;;;;;;3.08;1.48;;;20.90;70.20;;;;;;4686961;30;20064;-78
2022/06/27 16:21:07;;;;;;;5.25;1.70;;;20.90;70.20;;;;;;4701384;30;20065;-78
2022/06/27 16:23:33;;;;;;;4.50;1.45;;;20.90;70.30;;;;;;4702029;30;20049;-78
2022/06/27 16:25:59;;;;;;;4.70;1.52;;;20.90;70.40;;;;;;4701556;30;20062;-77
2022/06/27 16:28:24;;;;;;;3.95;1.50;;;20.90;70.60;;;;;;4686377;30;20061;-77
2022/06/27 16:33:34;;;;;;;6.55;1.92;;;20.90;70.90;;;;;;4702033;30;20054;-78
2022/06/27 16:36:00;;;;;;;3.05;2.00;;;20.90;71.70;;;;;;4686592;30;20116;-78
2022/06/27 16:38:26;;;;;;;4.60;1.45;;;20.80;71.30;;;;;;4701536;30;20103;-78
2022/06/27 16:40:52;;;;;;;4.07;1.80;;;20.80;71.40;;;;;;4700634;30;20054;-78
2022/06/27 16:43:18;;;;;;;6.18;2.22;;;20.90;71.40;;;;;;4701467;30;20050;-78
2022/06/27 16:45:58;;;;;;;4.53;2.28;;;20.90;71.30;;;;;;4702245;30;20069;-78
2022/06/27 16:48:26;;;;;;;3.03;1.67;;;20.90;71.30;;;;;;4701849;30;20450;-77
2022/06/27 16:50:55;;;;;;;5.40;1.85;;;20.90;71.40;;;;;;4701601;30;20057;-77
2022/06/27 16:53:21;;;;;;;3.78;1.65;;;21.00;71.40;;;;;;4702426;30;20127;-77
2022/06/27 16:55:47;;;;;;;4.93;1.95;;;21.00;71.20;;;;;;4686550;30;20061;-77
2022/06/27 16:58:14;;;;;;;3.90;1.85;;;21.00;71.10;;;;;;4686716;30;20119;-78
2022/06/27 17:00:42;;;;;;;4.90;1.98;;;21.00;70.80;;;;;;4701260;30;20179;-77
2022/06/27 17:03:10;;;;;;;2.47;1.52;;;21.00;70.50;;;;;;4701620;30;20049;-77
2022/06/27 17:05:37;;;;;;;3.53;1.63;;;20.90;70.40;;;;;;4701594;30;20100;-76
2022/06/27 17:08:04;;;;;;;2.05;1.30;;;20.90;70.90;;;;;;4701381;30;20137;-77
2022/06/27 17:10:31;;;;;;;4.75;1.83;;;20.80;70.20;;;;;;4686446;30;20062;-77
2022/06/27 17:12:58;;;;;;;3.08;1.55;;;20.80;70.20;;;;;;4701536;30;20057;-78
2022/06/27 17:15:23;;;;;;;2.63;1.45;;;20.80;70.20;;;;;;4701642;30;20062;-77
2022/06/27 17:17:49;;;;;;;4.07;1.42;;;20.70;70.30;;;;;;4701608;30;20050;-77
2022/06/27 17:20:15;;;;;;;2.72;1.30;;;20.70;70.50;;;;;;4701512;30;20067;-78
2022/06/27 17:22:41;;;;;;;2.72;1.40;;;20.60;70.60;;;;;;4700602;30;20104;-77
2022/06/27 17:25:07;;;;;;;2.70;1.30;;;20.60;70.70;;;;;;4703680;30;20053;-77
2022/06/27 17:27:37;;;;;;;2.85;1.35;;;20.60;70.90;;;;;;4689786;30;20161;-76
2022/06/27 17:30:07;;;;;;;3.03;1.38;;;20.60;71.00;;;;;;4705254;30;20334;-77
2022/06/27 17:32:34;;;;;;;4.85;1.40;;;20.60;71.10;;;;;;4704551;30;20081;-77
2022/06/27 17:35:00;;;;;;;2.90;1.08;;;20.50;71.20;;;;;;4704929;30;20068;-78